Monk Fryston, United Kingdom
Current Conditions -  °F | °C
As of 6:20 PM on Tuesday 21 Oct 2014 (Local Time) from EGNM Reporting Station
Few Clouds Few Clouds  
Wind Chill: 33°   Ceiling: Unl
Heat Index: 43°   Visibility: 6mi
Dew Point: 34°   Wind: 28mph
Humidity: 70%   Direction: 290°WNW
Pressure: 29.8"   Gusts: 40mph
Location:  53.76°N, 1.24°W
Report Text: EGNM 211720Z 29024G35KT 9999 FEW020 06/01 Q1009
Loading
Personal Weather Stations






























Interactive Weather Map
Tropical Storm Tracking
New forecast layout! Learn more

10-Day Weather Forecast

Advertisements
Track Severe Weather on mobile